createdAt,value
2023-01-18T00:00:19.009Z,93574.81
2023-01-18T00:02:47.240Z,93588.50
2023-01-18T00:05:15.594Z,93589.19
2023-01-18T00:07:43.465Z,93587.34
2023-01-18T00:10:12.900Z,93581.69
2023-01-18T00:12:40.706Z,93580.41
2023-01-18T00:15:09.881Z,93582.41
2023-01-18T00:17:47.556Z,93568.81
2023-01-18T00:20:15.584Z,93577.31
2023-01-18T00:22:43.456Z,93571.19
2023-01-18T00:25:13.352Z,93582.50
2023-01-18T00:27:45.543Z,93587.69
2023-01-18T00:30:14.800Z,93583.69
2023-01-18T00:32:42.597Z,93587.75
2023-01-18T00:35:11.244Z,93585.97
2023-01-18T00:37:38.977Z,93588.81
2023-01-18T00:40:08.556Z,93598.97
2023-01-18T00:42:55.346Z,93591.66
2023-01-18T00:45:23.250Z,93593.31
2023-01-18T00:47:51.077Z,93576.81
2023-01-18T00:50:19.633Z,93607.97
2023-01-18T00:52:47.863Z,93602.91
2023-01-18T00:55:18.001Z,93602.78
2023-01-18T00:57:47.204Z,93582.66
2023-01-18T01:00:16.785Z,93608.75
2023-01-18T01:02:44.630Z,93612.75
2023-01-18T01:05:36.127Z,93602.53
2023-01-18T01:08:04.716Z,93578.16
2023-01-18T01:10:32.626Z,93595.59
2023-01-18T01:13:19.731Z,93592.03
2023-01-18T01:16:05.281Z,93586.03
2023-01-18T01:18:50.361Z,93594.25
2023-01-18T01:21:35.789Z,93603.72
2023-01-18T01:24:21.208Z,93603.72
2023-01-18T01:26:49.006Z,93605.97
2023-01-18T01:29:18.396Z,93614.56
2023-01-18T01:31:46.130Z,93617.66
2023-01-18T01:34:14.269Z,93628.19
2023-01-18T01:36:42.099Z,93620.00
2023-01-18T01:39:11.063Z,93626.00
2023-01-18T01:41:38.938Z,93625.31
2023-01-18T01:44:39.891Z,93626.59
2023-01-18T01:47:14.325Z,93634.75
2023-01-18T01:49:46.103Z,93630.97
2023-01-18T01:52:16.949Z,93613.34
2023-01-18T01:54:48.693Z,93630.25
2023-01-18T01:57:20.284Z,93621.78
2023-01-18T01:59:54.951Z,93624.09
2023-01-18T02:02:24.241Z,93632.66
2023-01-18T02:04:55.271Z,93644.72
2023-01-18T02:07:26.197Z,93639.97
2023-01-18T02:09:54.923Z,93644.16
2023-01-18T02:12:23.368Z,93646.88
2023-01-18T02:14:51.278Z,93647.69
2023-01-18T02:17:36.982Z,93655.50
2023-01-18T02:20:35.361Z,93650.16
2023-01-18T02:23:25.530Z,93652.81
2023-01-18T02:26:30.951Z,93655.75
2023-01-18T02:29:06.958Z,93658.81
2023-01-18T02:31:39.437Z,93658.69
2023-01-18T02:34:14.441Z,93662.97
2023-01-18T02:36:52.242Z,93659.59
2023-01-18T02:39:38.528Z,93673.63
2023-01-18T02:42:35.460Z,93680.63
2023-01-18T02:45:27.679Z,93661.53
2023-01-18T02:47:56.369Z,93675.28
2023-01-18T02:50:27.012Z,93669.00
2023-01-18T02:52:55.369Z,93681.16
2023-01-18T02:55:32.549Z,93665.19
2023-01-18T02:58:13.053Z,93677.59
2023-01-18T03:00:47.855Z,93673.25
2023-01-18T03:03:17.547Z,93681.13
2023-01-18T03:05:47.531Z,93677.94
2023-01-18T03:08:21.308Z,93675.38
2023-01-18T03:10:58.947Z,93675.88
2023-01-18T03:13:37.167Z,93676.88
2023-01-18T03:16:11.120Z,93685.22
2023-01-18T03:19:00.257Z,93685.22
2023-01-18T03:21:42.222Z,93676.31
2023-01-18T03:24:10.803Z,93687.69
2023-01-18T03:26:41.893Z,93690.31
2023-01-18T03:29:28.015Z,93690.94
2023-01-18T03:32:20.152Z,93694.13
2023-01-18T03:34:53.631Z,93696.25
2023-01-18T03:37:28.335Z,93697.50
2023-01-18T03:40:00.168Z,93704.59
2023-01-18T03:42:33.967Z,93694.88
2023-01-18T03:45:09.934Z,93703.31
2023-01-18T03:47:39.530Z,93693.28
2023-01-18T03:50:07.942Z,93702.84
2023-01-18T03:52:42.757Z,93712.38
2023-01-18T03:55:17.056Z,93711.09
2023-01-18T03:57:50.184Z,93710.25
2023-01-18T04:00:18.694Z,93707.72
2023-01-18T04:02:50.531Z,93725.97
2023-01-18T04:05:18.675Z,93729.16
2023-01-18T04:07:46.529Z,93729.97
2023-01-18T04:10:14.436Z,93728.78
2023-01-18T04:12:42.584Z,93743.00
2023-01-18T04:15:11.427Z,93750.72
2023-01-18T04:17:39.860Z,93748.09
2023-01-18T04:20:10.796Z,93752.56
2023-01-18T04:22:38.685Z,93741.75
2023-01-18T04:25:07.562Z,93755.88
2023-01-18T04:27:35.283Z,93756.53
2023-01-18T04:30:03.245Z,93743.31
2023-01-18T04:32:31.312Z,93750.34
2023-01-18T04:34:59.177Z,93754.34
2023-01-18T04:37:30.509Z,93748.94
2023-01-18T04:39:58.444Z,93744.38
2023-01-18T04:42:26.714Z,93760.88
2023-01-18T04:44:54.665Z,93765.88
2023-01-18T04:47:22.500Z,93765.59
2023-01-18T04:49:50.263Z,93758.19
2023-01-18T04:52:19.274Z,93761.97
2023-01-18T04:54:50.042Z,93758.13
2023-01-18T04:57:17.837Z,93763.25
2023-01-18T04:59:46.561Z,93769.56
2023-01-18T05:02:15.835Z,93758.66
2023-01-18T05:04:45.035Z,93769.81
2023-01-18T05:07:13.171Z,93765.22
2023-01-18T05:09:40.912Z,93770.91
2023-01-18T05:12:10.060Z,93781.81
2023-01-18T05:14:37.835Z,93778.28
2023-01-18T05:17:05.665Z,93791.22
2023-01-18T05:19:33.732Z,93788.00
2023-01-18T05:22:01.552Z,93799.88
2023-01-18T05:24:30.412Z,93796.03
2023-01-18T05:26:58.278Z,93803.94
2023-01-18T05:29:27.536Z,93810.75
2023-01-18T05:31:55.348Z,93809.41
2023-01-18T05:34:23.538Z,93822.88
2023-01-18T05:36:51.324Z,93816.56
2023-01-18T05:39:19.435Z,93817.00
2023-01-18T05:41:47.172Z,93829.47
2023-01-18T05:44:15.061Z,93827.47
2023-01-18T05:46:44.189Z,93834.25
2023-01-18T05:49:11.964Z,93823.56
2023-01-18T05:51:39.835Z,93842.22
2023-01-18T05:54:07.683Z,93850.22
2023-01-18T05:56:35.578Z,93853.59
2023-01-18T05:59:03.289Z,93852.91
2023-01-18T06:01:31.155Z,93861.09
2023-01-18T06:04:00.396Z,93866.22
2023-01-18T06:06:28.338Z,93871.56
2023-01-18T06:08:56.146Z,93864.13
2023-01-18T06:11:23.887Z,93884.53
2023-01-18T06:13:52.353Z,93882.22
2023-01-18T06:16:20.372Z,93872.09
2023-01-18T06:18:51.151Z,93895.16
2023-01-18T06:21:20.345Z,93899.13
2023-01-18T06:23:48.163Z,93900.34
2023-01-18T06:26:15.992Z,93906.88
2023-01-18T06:28:44.221Z,93909.69
2023-01-18T06:31:12.293Z,93920.13
2023-01-18T06:33:40.088Z,93932.59
2023-01-18T06:36:08.234Z,93926.44
2023-01-18T06:38:37.403Z,93934.91
2023-01-18T06:41:05.753Z,93939.63
2023-01-18T06:43:33.579Z,93923.81
2023-01-18T06:46:01.537Z,93944.38
2023-01-18T06:48:29.888Z,93926.34
2023-01-18T06:50:58.484Z,93958.19
2023-01-18T06:53:26.678Z,93969.91
2023-01-18T06:55:58.029Z,93962.09
2023-01-18T06:58:27.021Z,93966.06
2023-01-18T07:00:58.503Z,93978.38
2023-01-18T07:03:28.459Z,93973.00
2023-01-18T07:05:56.897Z,93985.94
2023-01-18T07:08:26.866Z,93986.19
2023-01-18T07:10:56.037Z,93990.50
2023-01-18T07:13:24.060Z,94003.75
2023-01-18T07:15:56.585Z,93998.78
2023-01-18T07:18:24.539Z,94010.59
2023-01-18T07:20:58.386Z,94016.50
2023-01-18T07:23:26.522Z,94015.53
2023-01-18T07:26:03.104Z,94025.44
2023-01-18T07:28:31.639Z,94016.25
2023-01-18T07:30:59.918Z,94030.25
2023-01-18T07:33:28.157Z,94035.22
2023-01-18T07:35:57.227Z,94033.94
2023-01-18T07:38:26.002Z,94027.81
2023-01-18T07:40:59.350Z,94051.00
2023-01-18T07:43:28.700Z,94051.16
2023-01-18T07:45:58.015Z,94045.38
2023-01-18T07:48:26.197Z,94059.31
2023-01-18T07:50:55.475Z,94062.34
2023-01-18T07:53:23.987Z,94070.47
2023-01-18T07:55:53.069Z,94069.44
2023-01-18T07:58:21.884Z,94071.19
2023-01-18T08:00:51.040Z,94079.31
2023-01-18T08:03:20.064Z,94080.28
2023-01-18T08:05:48.789Z,94075.97
2023-01-18T08:08:18.196Z,94082.16
2023-01-18T08:10:46.225Z,94082.94
2023-01-18T08:13:13.964Z,94089.47
2023-01-18T08:15:41.846Z,94099.97
2023-01-18T08:18:11.923Z,94096.69
2023-01-18T08:20:40.708Z,94103.22
2023-01-18T08:23:08.482Z,94111.03
2023-01-18T08:25:36.459Z,94109.88
2023-01-18T08:28:04.882Z,94115.88
2023-01-18T08:30:35.308Z,94105.25
2023-01-18T08:33:03.697Z,94136.03
2023-01-18T08:35:34.906Z,94118.91
2023-01-18T08:38:02.835Z,94133.69
2023-01-18T08:40:31.058Z,94140.94
2023-01-18T08:43:00.320Z,94134.72
2023-01-18T08:45:28.852Z,94125.97
2023-01-18T08:47:58.103Z,94153.19
2023-01-18T08:50:26.303Z,94164.53
2023-01-18T08:52:57.354Z,94150.31
2023-01-18T08:55:25.253Z,94166.09
2023-01-18T08:57:54.945Z,94171.63
2023-01-18T09:00:26.754Z,94171.69
2023-01-18T09:02:54.596Z,94176.44
2023-01-18T09:05:22.753Z,94182.97
2023-01-18T09:07:50.945Z,94186.19
2023-01-18T09:10:21.336Z,94209.56
2023-01-18T09:12:49.446Z,94211.66
2023-01-18T09:15:18.418Z,94219.19
2023-01-18T09:17:46.414Z,94225.56
2023-01-18T09:20:16.067Z,94220.19
2023-01-18T09:22:48.231Z,94228.59
2023-01-18T09:25:18.059Z,94222.94
2023-01-18T09:27:48.031Z,94239.97
2023-01-18T09:30:17.009Z,94239.50
2023-01-18T09:32:44.726Z,94249.50
2023-01-18T09:35:17.926Z,94262.09
2023-01-18T09:37:46.475Z,94270.75
2023-01-18T09:40:21.238Z,94270.09
2023-01-18T09:42:52.802Z,94270.50
2023-01-18T09:45:30.528Z,94272.88
2023-01-18T09:48:03.439Z,60175.97
2023-01-18T09:50:34.370Z,60175.97
2023-01-18T09:53:11.123Z,60175.97
2023-01-18T09:55:49.029Z,60175.97
2023-01-18T09:58:34.697Z,60175.97
2023-01-18T10:01:06.037Z,60175.97
2023-01-18T10:03:41.935Z,60175.97
2023-01-18T10:06:16.748Z,60175.97
2023-01-18T10:08:53.313Z,60175.97
2023-01-18T10:11:28.191Z,60175.97
2023-01-18T10:14:05.216Z,60175.97
2023-01-18T10:16:34.641Z,60175.97
2023-01-18T10:19:03.171Z,60175.97
2023-01-18T10:21:41.997Z,60175.97
2023-01-18T10:24:29.057Z,60175.97
2023-01-18T10:27:18.583Z,60175.97
2023-01-18T10:30:01.603Z,60175.97
2023-01-18T10:32:31.401Z,60175.97
2023-01-18T10:35:03.277Z,60175.97
2023-01-18T10:37:40.548Z,60175.97
2023-01-18T10:40:10.421Z,60175.97
2023-01-18T10:42:44.766Z,60175.97
2023-01-18T10:45:21.545Z,60175.97
2023-01-18T10:47:50.058Z,60175.97
2023-01-18T10:50:20.525Z,60175.97
2023-01-18T10:52:49.658Z,60175.97
2023-01-18T10:55:19.428Z,60175.97
2023-01-18T10:57:49.932Z,60175.97
2023-01-18T11:00:27.812Z,60175.97
2023-01-18T11:02:57.432Z,60175.97
2023-01-18T11:05:31.493Z,60175.97
2023-01-18T11:08:13.166Z,60175.97
2023-01-18T11:10:41.548Z,60175.97
2023-01-18T11:13:26.750Z,60175.97
2023-01-18T11:16:17.683Z,60175.97
2023-01-18T11:19:03.843Z,60175.97
2023-01-18T11:21:46.251Z,60175.97
2023-01-18T11:24:17.468Z,60175.97
2023-01-18T11:26:54.487Z,60175.97
2023-01-18T11:29:26.496Z,60175.97
2023-01-18T11:32:01.944Z,60175.97
2023-01-18T11:34:32.970Z,60175.97
2023-01-18T11:37:01.882Z,60175.97
2023-01-18T11:39:32.724Z,60175.97
2023-01-18T11:42:21.853Z,60175.97
2023-01-18T11:45:00.140Z,60175.97
2023-01-18T11:47:37.133Z,60175.97
2023-01-18T11:50:22.212Z,60175.97
2023-01-18T11:52:54.320Z,60175.97
2023-01-18T11:55:31.608Z,60175.97
2023-01-18T11:58:00.856Z,60175.97
2023-01-18T12:00:38.456Z,60175.97
2023-01-18T12:03:26.949Z,60175.97
2023-01-18T12:05:59.108Z,60175.97
2023-01-18T12:08:51.119Z,60175.97
2023-01-18T12:11:41.050Z,60175.97
2023-01-18T12:14:17.819Z,60175.97
2023-01-18T12:17:03.245Z,60175.97
2023-01-18T12:19:53.643Z,60175.97
2023-01-18T12:22:58.890Z,60175.97
2023-01-18T12:25:41.705Z,60175.97
2023-01-18T12:28:23.258Z,60175.97
2023-01-18T12:31:02.682Z,60175.97
2023-01-18T12:33:43.999Z,60175.97
2023-01-18T12:36:52.205Z,60175.97
2023-01-18T12:39:37.380Z,60175.97
2023-01-18T12:42:06.833Z,60175.97
2023-01-18T12:44:50.675Z,60175.97
2023-01-18T12:47:28.534Z,60175.97
2023-01-18T12:50:00.193Z,60175.97
2023-01-18T12:52:42.694Z,60175.97
2023-01-18T12:55:17.452Z,60175.97
2023-01-18T12:57:46.697Z,60175.97
2023-01-18T13:00:21.192Z,60175.97
2023-01-18T13:02:55.489Z,60175.97
2023-01-18T13:05:35.180Z,60175.97
2023-01-18T13:08:11.257Z,60175.97
2023-01-18T13:10:39.823Z,60175.97
2023-01-18T13:13:08.928Z,60175.97
2023-01-18T13:15:44.139Z,60175.97
2023-01-18T13:18:16.500Z,60175.97
2023-01-18T13:20:56.730Z,60175.97
2023-01-18T13:23:35.801Z,60175.97
2023-01-18T13:26:18.548Z,60175.97
2023-01-18T13:28:46.476Z,60175.97
2023-01-18T13:31:14.542Z,60175.97
2023-01-18T13:33:45.928Z,60175.97
2023-01-18T13:36:17.333Z,60175.97
2023-01-18T13:38:53.313Z,60175.97
2023-01-18T13:41:24.735Z,60175.97
2023-01-18T13:44:05.159Z,60175.97
2023-01-18T13:46:36.539Z,60175.97
2023-01-18T13:49:36.586Z,60175.97
2023-01-18T13:52:32.504Z,60175.97
2023-01-18T13:55:05.496Z,60175.97
2023-01-18T13:57:35.394Z,60175.97
2023-01-18T14:00:04.248Z,60175.97
2023-01-18T14:02:42.076Z,60175.97
2023-01-18T14:05:20.196Z,60175.97
2023-01-18T14:07:49.775Z,60175.97
2023-01-18T14:10:26.853Z,60175.97
2023-01-18T14:12:56.723Z,60175.97
2023-01-18T14:15:29.068Z,60175.97
2023-01-18T14:17:58.956Z,60175.97
2023-01-18T14:20:50.663Z,60175.97
2023-01-18T14:23:42.045Z,60175.97
2023-01-18T14:26:13.371Z,60175.97
2023-01-18T14:28:48.362Z,60175.97
2023-01-18T14:31:21.077Z,60175.97
2023-01-18T14:33:49.623Z,60175.97
2023-01-18T14:36:23.267Z,60175.97
2023-01-18T14:39:12.952Z,60175.97
2023-01-18T14:41:44.634Z,60175.97
2023-01-18T14:44:17.824Z,60175.97
2023-01-18T14:46:51.243Z,60175.97
2023-01-18T14:49:25.493Z,60175.97
2023-01-18T14:51:54.644Z,60175.97
2023-01-18T14:54:24.897Z,60175.97
2023-01-18T14:57:01.978Z,60175.97
2023-01-18T14:59:31.506Z,60175.97
2023-01-18T15:02:02.268Z,60175.97
2023-01-18T15:04:32.987Z,60175.97
2023-01-18T15:07:03.820Z,60175.97
2023-01-18T15:09:33.965Z,60175.97
2023-01-18T15:12:08.957Z,60175.97
2023-01-18T15:14:42.515Z,60175.97
2023-01-18T15:17:21.413Z,60175.97
2023-01-18T15:19:53.040Z,60175.97
2023-01-18T15:22:30.835Z,60175.97
2023-01-18T15:25:00.779Z,60175.97
2023-01-18T15:27:33.289Z,60175.97
2023-01-18T15:30:02.583Z,60175.97
2023-01-18T15:32:32.739Z,60175.97
2023-01-18T15:35:02.398Z,60175.97
2023-01-18T15:37:32.515Z,60175.97
2023-01-18T15:40:02.301Z,60175.97
2023-01-18T15:42:34.378Z,60175.97
2023-01-18T15:45:02.134Z,60175.97
2023-01-18T15:47:31.373Z,60175.97
2023-01-18T15:50:01.477Z,60175.97
2023-01-18T15:52:43.835Z,60175.97
2023-01-18T15:55:23.052Z,60175.97
2023-01-18T15:57:58.953Z,60175.97
2023-01-18T16:00:33.212Z,60175.97
2023-01-18T16:03:03.060Z,60175.97
2023-01-18T16:05:32.867Z,60175.97
2023-01-18T16:08:22.846Z,60175.97
2023-01-18T16:10:55.073Z,60175.97
2023-01-18T16:13:36.174Z,60175.97
2023-01-18T16:16:19.316Z,60175.97
2023-01-18T16:18:49.641Z,60175.97
2023-01-18T16:21:26.156Z,60175.97
2023-01-18T16:23:54.949Z,60175.97
2023-01-18T16:26:30.256Z,60175.97
2023-01-18T16:29:08.666Z,60175.97
2023-01-18T16:31:39.811Z,60175.97
2023-01-18T16:34:19.972Z,60175.97
2023-01-18T16:36:48.417Z,60175.97
2023-01-18T16:39:16.289Z,60175.97
2023-01-18T16:41:51.279Z,60175.97
2023-01-18T16:44:20.979Z,60175.97
2023-01-18T16:46:48.897Z,60175.97
2023-01-18T16:49:16.737Z,60175.97
2023-01-18T16:51:44.601Z,60175.97
2023-01-18T16:54:12.440Z,60175.97
2023-01-18T16:56:45.800Z,60175.97
2023-01-18T16:59:17.843Z,60175.97
2023-01-18T17:01:46.981Z,60175.97
2023-01-18T17:04:15.006Z,60175.97
2023-01-18T17:06:44.342Z,60175.97
2023-01-18T17:09:21.039Z,60175.97
2023-01-18T17:14:14.546Z,94915.81
2023-01-18T17:16:43.567Z,94924.53
2023-01-18T17:19:13.252Z,94922.91
2023-01-18T17:21:53.616Z,94929.09
2023-01-18T17:24:22.756Z,94937.09
2023-01-18T17:26:50.928Z,94938.16
2023-01-18T17:29:21.904Z,94950.72
2023-01-18T17:31:53.009Z,94964.94
2023-01-18T17:34:27.767Z,94968.56
2023-01-18T17:36:56.573Z,94965.56
2023-01-18T17:39:31.956Z,94975.50
2023-01-18T17:42:14.241Z,94967.84
2023-01-18T17:44:45.739Z,94974.91
2023-01-18T17:47:13.851Z,94982.81
2023-01-18T17:49:42.208Z,94967.06
2023-01-18T17:52:10.379Z,94994.94
2023-01-18T17:54:38.435Z,94993.28
2023-01-18T17:57:06.270Z,95001.38
2023-01-18T17:59:34.102Z,95006.25
2023-01-18T18:02:04.899Z,95007.69
2023-01-18T18:04:32.902Z,95019.97
2023-01-18T18:07:00.794Z,95016.25
2023-01-18T18:09:29.194Z,95018.50
2023-01-18T18:11:57.307Z,95012.31
2023-01-18T18:14:25.140Z,95033.28
2023-01-18T18:16:52.955Z,95028.34
2023-01-18T18:19:22.192Z,95047.16
2023-01-18T18:21:50.810Z,95050.03
2023-01-18T18:24:18.638Z,95056.06
2023-01-18T18:26:46.704Z,95049.00
2023-01-18T18:29:14.441Z,95062.53
2023-01-18T18:31:44.086Z,95064.63
2023-01-18T18:34:12.308Z,60175.97
2023-01-18T18:36:41.562Z,60175.97
2023-01-18T18:39:09.635Z,60175.97
2023-01-18T18:41:37.474Z,60175.97
2023-01-18T18:44:05.770Z,60175.97
2023-01-18T18:46:33.838Z,60175.97
2023-01-18T18:49:01.816Z,60175.97
2023-01-18T18:51:29.580Z,60175.97
2023-01-18T18:53:58.743Z,60175.97
2023-01-18T18:56:26.556Z,60175.97
2023-01-18T18:58:54.388Z,60175.97
2023-01-18T19:01:23.962Z,60175.97
2023-01-18T19:03:53.685Z,60175.97
2023-01-18T19:06:23.296Z,60175.97
2023-01-18T19:08:51.285Z,60175.97
2023-01-18T19:11:22.004Z,60175.97
2023-01-18T19:13:50.086Z,60175.97
2023-01-18T19:16:18.143Z,60175.97
2023-01-18T19:18:46.049Z,60175.97
2023-01-18T19:21:13.844Z,60175.97
2023-01-18T19:23:41.684Z,60175.97
2023-01-18T19:26:09.414Z,60175.97
2023-01-18T19:28:38.691Z,60175.97
2023-01-18T19:31:08.355Z,60175.97
2023-01-18T19:33:36.761Z,60175.97
2023-01-18T19:36:09.950Z,60175.97
2023-01-18T19:38:45.815Z,60175.97
2023-01-18T19:41:15.282Z,60175.97
2023-01-18T19:43:44.561Z,60175.97
2023-01-18T19:46:15.221Z,60175.97
2023-01-18T19:48:43.993Z,60175.97
2023-01-18T19:51:21.714Z,60175.97
2023-01-18T19:53:50.890Z,60175.97
2023-01-18T19:56:18.652Z,60175.97
2023-01-18T19:58:48.137Z,60175.97
2023-01-18T20:01:34.706Z,60175.97
2023-01-18T20:04:04.359Z,60175.97
2023-01-18T20:06:32.247Z,60175.97
2023-01-18T20:09:00.009Z,60175.97
2023-01-18T20:11:27.982Z,60175.97
2023-01-18T20:13:57.524Z,60175.97
2023-01-18T20:16:25.298Z,60175.97
2023-01-18T20:18:54.404Z,60175.97
2023-01-18T20:21:22.216Z,60175.97
2023-01-18T20:23:49.982Z,60175.97
2023-01-18T20:26:34.862Z,60175.97
2023-01-18T20:29:06.735Z,60175.97
2023-01-18T20:31:36.252Z,60175.97
2023-01-18T20:34:05.129Z,60175.97
2023-01-18T20:36:34.906Z,60175.97
2023-01-18T20:39:02.883Z,60175.97
2023-01-18T20:41:31.155Z,60175.97
2023-01-18T20:43:58.924Z,60175.97
2023-01-18T20:46:28.312Z,60175.97
2023-01-18T20:48:56.189Z,60175.97
2023-01-18T20:51:24.427Z,60175.97
2023-01-18T20:53:52.390Z,60175.97
2023-01-18T20:56:29.470Z,60175.97
2023-01-18T20:59:00.216Z,60175.97
2023-01-18T21:01:32.632Z,60175.97
2023-01-18T21:04:02.133Z,60175.97
2023-01-18T21:06:30.545Z,60175.97
2023-01-18T21:09:00.201Z,60175.97
2023-01-18T21:11:28.918Z,60175.97
2023-01-18T21:13:59.052Z,60175.97
2023-01-18T21:16:28.244Z,60175.97
2023-01-18T21:18:59.128Z,60175.97
2023-01-18T21:21:29.299Z,60175.97
2023-01-18T21:23:57.310Z,60175.97
2023-01-18T21:26:25.260Z,60175.97
2023-01-18T21:28:53.112Z,60175.97
2023-01-18T21:31:21.075Z,60175.97
2023-01-18T21:33:49.498Z,60175.97
2023-01-18T21:36:20.050Z,60175.97
2023-01-18T21:38:47.991Z,60175.97
2023-01-18T21:41:33.225Z,60175.97
2023-01-18T21:44:18.703Z,60175.97
2023-01-18T21:46:47.098Z,60175.97
2023-01-18T21:49:43.026Z,60175.97
2023-01-18T21:52:35.860Z,60175.97
2023-01-18T21:55:03.735Z,60175.97
2023-01-18T21:57:31.562Z,60175.97
2023-01-18T21:59:59.302Z,60175.97
2023-01-18T22:02:27.370Z,60175.97
2023-01-18T22:04:59.239Z,60175.97
2023-01-18T22:07:30.150Z,60175.97
2023-01-18T22:10:05.230Z,60175.97
2023-01-18T22:12:35.741Z,60175.97
2023-01-18T22:15:04.626Z,60175.97
2023-01-18T22:17:32.609Z,60175.97
2023-01-18T22:20:01.708Z,60175.97
2023-01-18T22:22:31.006Z,60175.97
2023-01-18T22:25:00.296Z,60175.97
2023-01-18T22:27:28.573Z,60175.97
2023-01-18T22:29:56.387Z,60175.97
2023-01-18T22:32:24.142Z,60175.97
2023-01-18T22:34:52.158Z,60175.97
2023-01-18T22:37:20.001Z,60175.97
2023-01-18T22:39:50.486Z,60175.97
2023-01-18T22:42:19.009Z,60175.97
2023-01-18T22:44:46.940Z,60175.97
2023-01-18T22:47:14.651Z,60175.97
2023-01-18T22:49:42.466Z,60175.97
2023-01-18T22:52:10.634Z,60175.97
2023-01-18T22:54:38.437Z,60175.97
2023-01-18T22:57:07.571Z,60175.97
2023-01-18T22:59:35.372Z,60175.97
2023-01-18T23:02:03.323Z,60175.97
2023-01-18T23:04:31.465Z,60175.97
2023-01-18T23:07:01.094Z,60175.97
2023-01-18T23:09:29.401Z,60175.97
2023-01-18T23:11:57.343Z,60175.97
2023-01-18T23:14:44.210Z,60175.97
2023-01-18T23:17:30.066Z,60175.97
2023-01-18T23:19:57.798Z,60175.97
2023-01-18T23:22:25.593Z,60175.97
2023-01-18T23:24:53.399Z,60175.97
2023-01-18T23:27:21.289Z,60175.97
2023-01-18T23:29:57.275Z,60175.97
2023-01-18T23:32:28.001Z,60175.97
2023-01-18T23:34:56.002Z,60175.97
2023-01-18T23:37:24.519Z,60175.97
2023-01-18T23:40:09.667Z,60175.97
2023-01-18T23:42:54.956Z,60175.97
2023-01-18T23:45:41.641Z,60175.97
2023-01-18T23:48:27.522Z,60175.97
2023-01-18T23:51:12.776Z,60175.97
2023-01-18T23:53:58.672Z,60175.97
2023-01-18T23:56:27.645Z,60175.97
2023-01-18T23:58:56.758Z,60175.97
